createdAt,value
2023-02-15T00:01:07.835Z,3.89
2023-02-15T00:03:34.410Z,3.91
2023-02-15T00:06:01.153Z,3.89
2023-02-15T00:08:27.977Z,3.89
2023-02-15T00:11:04.670Z,2.87
2023-02-15T00:13:31.227Z,3.74
2023-02-15T00:16:02.120Z,3.82
2023-02-15T00:18:30.231Z,3.82
2023-02-15T00:20:56.782Z,3.80
2023-02-15T00:23:23.397Z,3.80
2023-02-15T00:25:50.894Z,3.81
2023-02-15T00:28:17.426Z,3.82
2023-02-15T00:30:43.964Z,3.17
2023-02-15T00:33:10.522Z,3.66
2023-02-15T00:35:38.389Z,3.73
2023-02-15T00:38:04.933Z,3.44
2023-02-15T00:40:31.447Z,3.69
2023-02-15T00:42:59.557Z,2.70
2023-02-15T00:45:26.077Z,1.70
2023-02-15T00:47:52.616Z,3.23
2023-02-15T00:50:19.141Z,3.46
2023-02-15T00:52:47.001Z,3.57
2023-02-15T00:55:13.530Z,3.23
2023-02-15T00:57:40.068Z,3.54
2023-02-15T01:00:07.899Z,3.57
2023-02-15T01:02:34.623Z,3.55
2023-02-15T01:05:01.205Z,3.56
2023-02-15T01:07:27.787Z,3.57
2023-02-15T01:09:55.706Z,3.54
2023-02-15T01:12:22.245Z,3.53
2023-02-15T01:14:48.794Z,3.52
2023-02-15T01:17:15.316Z,3.53
2023-02-15T01:19:41.925Z,3.53
2023-02-15T01:22:08.515Z,3.50
2023-02-15T01:24:35.096Z,3.48
2023-02-15T01:27:02.968Z,1.83
2023-02-15T01:29:29.526Z,3.21
2023-02-15T01:31:56.141Z,3.40
2023-02-15T01:34:22.723Z,2.81
2023-02-15T01:36:49.304Z,3.30
2023-02-15T01:39:15.968Z,3.43
2023-02-15T01:41:42.553Z,3.41
2023-02-15T01:44:59.659Z,2.82
2023-02-15T01:47:32.726Z,2.33
2023-02-15T01:50:04.615Z,3.23
2023-02-15T01:52:31.446Z,3.31
2023-02-15T01:54:58.621Z,3.33
2023-02-15T01:57:27.077Z,3.29
2023-02-15T01:59:59.045Z,3.32
2023-02-15T02:02:26.019Z,3.28
2023-02-15T02:04:57.801Z,3.26
2023-02-15T02:07:28.688Z,3.25
2023-02-15T02:09:55.995Z,3.24
2023-02-15T02:12:24.566Z,3.25
2023-02-15T02:14:52.557Z,3.22
2023-02-15T02:17:29.116Z,3.24
2023-02-15T02:20:26.813Z,3.24
2023-02-15T02:23:25.153Z,3.22
2023-02-15T02:26:43.580Z,3.21
2023-02-15T02:29:40.753Z,3.23
2023-02-15T02:32:37.981Z,3.26
2023-02-15T02:35:12.444Z,3.06
2023-02-15T02:37:49.443Z,3.13
2023-02-15T02:40:22.446Z,3.17
2023-02-15T02:42:55.820Z,3.10
2023-02-15T02:45:28.813Z,3.13
2023-02-15T02:48:00.382Z,3.10
2023-02-15T02:50:30.288Z,3.10
2023-02-15T02:52:59.098Z,3.08
2023-02-15T02:55:31.200Z,3.06
2023-02-15T02:58:04.103Z,3.09
2023-02-15T03:00:37.229Z,3.05
2023-02-15T03:03:10.115Z,3.04
2023-02-15T03:05:41.436Z,3.05
2023-02-15T03:08:10.707Z,3.04
2023-02-15T03:10:40.141Z,1.78
2023-02-15T03:13:07.440Z,0.86
2023-02-15T03:15:56.352Z,2.61
2023-02-15T03:18:26.413Z,1.61
2023-02-15T03:20:56.217Z,2.60
2023-02-15T03:23:26.262Z,2.82
2023-02-15T03:25:58.894Z,2.85
2023-02-15T03:28:33.015Z,2.88
2023-02-15T03:31:03.976Z,2.86
2023-02-15T03:33:31.407Z,2.83
2023-02-15T03:36:06.405Z,2.88
2023-02-15T03:38:37.872Z,2.81
2023-02-15T03:41:10.521Z,2.85
2023-02-15T03:43:45.817Z,2.85
2023-02-15T03:46:18.677Z,2.80
2023-02-15T03:48:51.740Z,2.81
2023-02-15T03:51:35.180Z,2.77
2023-02-15T03:54:04.090Z,2.80
2023-02-15T03:56:31.402Z,2.80
2023-02-15T03:59:16.441Z,1.31
2023-02-15T04:02:00.338Z,2.62
2023-02-15T04:04:36.008Z,2.20
2023-02-15T04:07:06.643Z,2.67
2023-02-15T04:09:51.709Z,2.71
2023-02-15T04:12:18.302Z,2.72
2023-02-15T04:15:03.520Z,2.75
2023-02-15T04:17:30.462Z,2.72
2023-02-15T04:20:15.770Z,2.72
2023-02-15T04:23:02.513Z,2.19
2023-02-15T04:25:29.085Z,2.64
2023-02-15T04:27:55.963Z,2.64
2023-02-15T04:30:24.858Z,2.63
2023-02-15T04:32:51.983Z,2.62
2023-02-15T04:35:19.197Z,2.63
2023-02-15T04:37:47.134Z,2.59
2023-02-15T04:40:16.443Z,2.60
2023-02-15T04:42:44.547Z,2.59
2023-02-15T04:45:11.081Z,2.57
2023-02-15T04:47:37.732Z,2.64
2023-02-15T04:50:05.311Z,2.52
2023-02-15T04:52:31.858Z,2.55
2023-02-15T04:54:59.742Z,2.53
2023-02-15T04:57:26.294Z,2.54
2023-02-15T04:59:52.893Z,2.52
2023-02-15T05:02:19.444Z,2.52
2023-02-15T05:04:46.009Z,2.51
2023-02-15T05:07:12.587Z,2.51
2023-02-15T05:09:39.152Z,2.46
2023-02-15T05:12:07.328Z,2.48
2023-02-15T05:14:33.847Z,2.45
2023-02-15T05:17:02.432Z,2.42
2023-02-15T05:19:29.015Z,2.43
2023-02-15T05:21:55.603Z,2.44
2023-02-15T05:24:40.727Z,2.43
2023-02-15T05:27:43.583Z,2.40
2023-02-15T05:30:12.624Z,2.44
2023-02-15T05:32:39.892Z,2.38
2023-02-15T05:35:07.268Z,2.39
2023-02-15T05:37:34.112Z,2.35
2023-02-15T05:40:00.671Z,2.37
2023-02-15T05:42:28.534Z,2.33
2023-02-15T05:44:55.073Z,2.31
2023-02-15T05:47:21.601Z,2.31
2023-02-15T05:49:48.165Z,2.32
2023-02-15T05:52:14.697Z,2.30
2023-02-15T05:54:41.242Z,2.27
2023-02-15T05:57:07.825Z,2.27
2023-02-15T05:59:35.752Z,2.25
2023-02-15T06:02:02.339Z,2.21
2023-02-15T06:04:29.013Z,2.23
2023-02-15T06:06:55.556Z,2.22
2023-02-15T06:09:22.116Z,2.21
2023-02-15T06:11:48.696Z,2.20
2023-02-15T06:14:15.334Z,2.20
2023-02-15T06:16:43.262Z,2.17
2023-02-15T06:19:09.810Z,2.18
2023-02-15T06:21:36.400Z,2.17
2023-02-15T06:24:03.097Z,2.16
2023-02-15T06:26:29.695Z,2.13
2023-02-15T06:28:56.277Z,2.13
2023-02-15T06:31:22.918Z,2.12
2023-02-15T06:33:50.908Z,2.09
2023-02-15T06:36:17.467Z,2.09
2023-02-15T06:38:44.057Z,2.09
2023-02-15T06:41:10.671Z,2.09
2023-02-15T06:43:37.573Z,1.58
2023-02-15T06:46:05.410Z,1.94
2023-02-15T06:48:32.129Z,2.01
2023-02-15T06:50:59.985Z,2.02
2023-02-15T06:53:26.539Z,2.01
2023-02-15T06:55:53.085Z,1.98
2023-02-15T06:58:19.682Z,1.99
2023-02-15T07:00:46.392Z,1.97
2023-02-15T07:03:15.597Z,1.96
2023-02-15T07:05:42.202Z,1.94
2023-02-15T07:08:10.225Z,1.95
2023-02-15T07:10:36.755Z,1.95
2023-02-15T07:13:03.343Z,1.44
2023-02-15T07:15:30.512Z,1.36
2023-02-15T07:17:59.301Z,1.24
2023-02-15T07:20:26.051Z,1.76
2023-02-15T07:22:52.629Z,1.84
2023-02-15T07:25:21.069Z,1.85
2023-02-15T07:27:47.802Z,1.94
2023-02-15T07:30:17.283Z,0.83
2023-02-15T07:33:05.023Z,1.62
2023-02-15T07:35:32.350Z,1.82
2023-02-15T07:37:58.914Z,1.26
2023-02-15T07:40:29.852Z,1.21
2023-02-15T07:42:59.903Z,0.69
2023-02-15T07:45:26.535Z,0.62
2023-02-15T07:47:53.185Z,0.83
2023-02-15T07:50:19.748Z,0.84
2023-02-15T07:52:46.275Z,1.53
2023-02-15T07:55:13.734Z,1.79
2023-02-15T07:57:44.969Z,1.90
2023-02-15T08:00:13.887Z,1.94
2023-02-15T08:02:40.475Z,1.78
2023-02-15T08:05:07.752Z,1.73
2023-02-15T08:07:34.342Z,1.80
2023-02-15T08:10:00.918Z,1.96
2023-02-15T08:12:27.624Z,1.98
2023-02-15T08:14:55.732Z,1.93
2023-02-15T08:17:22.274Z,1.83
2023-02-15T08:19:48.833Z,2.49
2023-02-15T08:22:15.517Z,2.29
2023-02-15T08:24:42.480Z,2.13
2023-02-15T08:27:11.718Z,2.25
2023-02-15T08:29:40.066Z,3.22
2023-02-15T08:32:10.187Z,2.15
2023-02-15T08:34:40.065Z,3.61
2023-02-15T08:37:06.918Z,3.54
2023-02-15T08:39:33.927Z,4.34
2023-02-15T08:42:00.474Z,3.94
2023-02-15T08:44:27.127Z,4.20
2023-02-15T08:46:53.676Z,2.74
2023-02-15T08:49:22.893Z,2.68
2023-02-15T08:51:50.527Z,1.48
2023-02-15T08:54:20.727Z,2.42
2023-02-15T08:56:47.779Z,2.40
2023-02-15T08:59:17.064Z,3.58
2023-02-15T09:01:43.723Z,4.38
2023-02-15T09:04:11.307Z,3.66
2023-02-15T09:06:40.650Z,3.63
2023-02-15T09:09:08.410Z,6.07
2023-02-15T09:11:36.956Z,5.31
2023-02-15T09:14:05.842Z,4.91
2023-02-15T09:16:34.417Z,6.65
2023-02-15T09:19:07.388Z,5.49
2023-02-15T09:21:36.052Z,4.74
2023-02-15T09:24:07.388Z,6.93
2023-02-15T09:26:36.961Z,7.64
2023-02-15T09:29:04.813Z,7.16
2023-02-15T09:31:33.165Z,7.76
2023-02-15T09:34:04.003Z,7.42
2023-02-15T09:36:32.917Z,7.85
2023-02-15T09:39:06.759Z,9.57
2023-02-15T09:42:03.689Z,6.74
2023-02-15T09:44:43.302Z,7.11
2023-02-15T09:47:27.705Z,6.18
2023-02-15T09:50:04.944Z,5.76
2023-02-15T09:52:56.865Z,6.61
2023-02-15T09:55:43.922Z,4.18
2023-02-15T09:58:18.913Z,7.15
2023-02-15T10:00:55.467Z,4.54
2023-02-15T10:03:42.215Z,5.30
2023-02-15T10:06:32.596Z,4.21
2023-02-15T10:09:32.465Z,5.55
2023-02-15T10:12:13.198Z,6.56
2023-02-15T10:15:14.756Z,10.36
2023-02-15T10:17:53.888Z,9.05
2023-02-15T10:20:32.495Z,8.02
2023-02-15T10:23:14.582Z,10.16
2023-02-15T10:25:45.997Z,8.92
2023-02-15T10:28:20.327Z,8.20
2023-02-15T10:30:51.467Z,8.39
2023-02-15T10:33:33.433Z,9.60
2023-02-15T10:36:12.816Z,11.34
2023-02-15T10:38:43.478Z,7.19
2023-02-15T10:41:26.393Z,7.18
2023-02-15T10:44:09.467Z,6.22
2023-02-15T10:47:05.472Z,7.07
2023-02-15T10:49:47.529Z,7.18
2023-02-15T10:52:28.644Z,6.46
2023-02-15T10:55:04.758Z,6.09
2023-02-15T10:57:40.469Z,5.20
2023-02-15T11:00:14.942Z,6.34
2023-02-15T11:03:05.471Z,6.23
2023-02-15T11:05:42.388Z,7.86
2023-02-15T11:08:11.086Z,7.75
2023-02-15T11:10:41.789Z,8.27
2023-02-15T11:13:13.182Z,7.16
2023-02-15T11:15:45.804Z,6.24
2023-02-15T11:18:20.249Z,13.95
2023-02-15T11:20:54.139Z,12.78
2023-02-15T11:23:21.714Z,10.73
2023-02-15T11:25:56.078Z,9.74
2023-02-15T11:28:28.611Z,11.15
2023-02-15T11:30:56.857Z,8.87
2023-02-15T11:33:29.844Z,9.34
2023-02-15T11:36:01.275Z,10.89
2023-02-15T11:38:32.492Z,8.83
2023-02-15T11:41:04.723Z,12.21
2023-02-15T11:43:36.982Z,13.54
2023-02-15T11:46:04.145Z,12.66
2023-02-15T11:48:32.876Z,10.94
2023-02-15T11:51:00.501Z,13.87
2023-02-15T11:53:32.863Z,11.40
2023-02-15T11:55:59.780Z,11.06
2023-02-15T11:58:32.159Z,10.78
2023-02-15T12:01:03.722Z,11.36
2023-02-15T12:03:45.401Z,11.39
2023-02-15T12:06:18.325Z,10.75
2023-02-15T12:08:50.257Z,11.22
2023-02-15T12:11:23.306Z,11.26
2023-02-15T12:13:57.966Z,11.60
2023-02-15T12:16:25.752Z,11.17
2023-02-15T12:18:57.732Z,10.24
2023-02-15T12:21:30.643Z,9.91
2023-02-15T12:24:02.510Z,10.24
2023-02-15T12:26:31.747Z,10.04
2023-02-15T12:29:02.507Z,9.60
2023-02-15T12:31:33.992Z,10.00
2023-02-15T12:34:04.827Z,9.98
2023-02-15T12:36:34.032Z,9.98
2023-02-15T12:39:06.143Z,9.63
2023-02-15T12:41:33.012Z,10.20
2023-02-15T12:44:14.260Z,10.05
2023-02-15T12:46:41.223Z,9.31
2023-02-15T12:49:20.979Z,9.78
2023-02-15T12:51:50.869Z,9.81
2023-02-15T12:54:32.180Z,9.53
2023-02-15T12:56:59.467Z,9.90
2023-02-15T12:59:26.255Z,10.15
2023-02-15T13:01:56.624Z,8.58
2023-02-15T13:04:27.444Z,8.73
2023-02-15T13:06:56.924Z,10.27
2023-02-15T13:09:35.466Z,10.30
2023-02-15T13:12:12.421Z,10.30
2023-02-15T13:14:45.579Z,10.38
2023-02-15T13:17:14.583Z,10.61
2023-02-15T13:19:45.700Z,10.56
2023-02-15T13:22:16.079Z,10.37
2023-02-15T13:24:45.818Z,10.68
2023-02-15T13:27:16.230Z,10.52
2023-02-15T13:29:45.508Z,10.25
2023-02-15T13:32:23.923Z,10.77
2023-02-15T13:34:59.749Z,10.67
2023-02-15T13:37:42.084Z,9.18
2023-02-15T13:40:15.486Z,8.79
2023-02-15T13:42:47.472Z,7.16
2023-02-15T13:45:31.457Z,8.99
2023-02-15T13:48:05.017Z,9.79
2023-02-15T13:50:53.550Z,10.40
2023-02-15T13:53:36.460Z,8.28
2023-02-15T13:56:13.463Z,7.46
2023-02-15T13:59:14.557Z,7.79
2023-02-15T14:01:46.657Z,9.13
2023-02-15T14:04:54.505Z,9.25
2023-02-15T14:07:50.575Z,10.59
2023-02-15T14:10:28.775Z,10.93
2023-02-15T14:13:11.716Z,10.92
2023-02-15T14:15:48.084Z,10.92
2023-02-15T14:18:26.132Z,10.92
2023-02-15T14:21:02.366Z,10.26
2023-02-15T14:23:43.720Z,9.16
2023-02-15T14:26:19.654Z,8.46
2023-02-15T14:28:56.282Z,10.20
2023-02-15T14:31:32.130Z,9.42
2023-02-15T14:33:58.974Z,7.82
2023-02-15T14:36:28.296Z,7.73
2023-02-15T14:39:07.203Z,9.68
2023-02-15T14:41:42.741Z,10.01
2023-02-15T14:44:16.705Z,9.06
2023-02-15T14:46:50.764Z,7.73
2023-02-15T14:49:21.854Z,7.40
2023-02-15T14:52:03.177Z,7.29
2023-02-15T14:54:56.426Z,7.15
2023-02-15T14:57:35.033Z,7.11
2023-02-15T15:00:07.934Z,7.03
2023-02-15T15:02:46.370Z,7.02
2023-02-15T15:05:20.188Z,7.02
2023-02-15T15:07:49.330Z,7.12
2023-02-15T15:10:38.306Z,6.97
2023-02-15T15:13:38.822Z,6.92
2023-02-15T15:16:25.949Z,6.89
2023-02-15T15:18:52.949Z,6.88
2023-02-15T15:21:57.168Z,6.87
2023-02-15T15:25:03.447Z,6.89
2023-02-15T15:27:46.641Z,6.87
2023-02-15T15:31:00.485Z,6.87
2023-02-15T15:34:03.051Z,6.85
2023-02-15T15:37:07.051Z,6.85
2023-02-15T15:40:02.392Z,6.85
2023-02-15T15:42:52.882Z,6.85
2023-02-15T15:45:47.093Z,6.84
2023-02-15T15:48:34.240Z,6.87
2023-02-15T15:51:05.062Z,6.86
2023-02-15T15:53:38.368Z,6.86
2023-02-15T15:56:08.286Z,6.89
2023-02-15T15:58:36.245Z,6.73
2023-02-15T16:01:06.979Z,6.76
2023-02-15T16:03:33.590Z,6.78
2023-02-15T16:06:01.686Z,6.82
2023-02-15T16:08:33.766Z,6.83
2023-02-15T16:11:08.604Z,6.86
2023-02-15T16:13:36.502Z,6.86
2023-02-15T16:16:03.364Z,6.83
2023-02-15T16:18:30.801Z,6.81
2023-02-15T16:21:00.510Z,6.81
2023-02-15T16:23:45.388Z,6.82
2023-02-15T16:26:20.238Z,6.80
2023-02-15T16:28:50.541Z,6.78
2023-02-15T16:31:17.636Z,6.32
2023-02-15T16:33:45.846Z,6.46
2023-02-15T16:36:23.206Z,6.75
2023-02-15T16:39:11.305Z,6.77
2023-02-15T16:41:38.713Z,6.81
2023-02-15T16:44:13.462Z,6.72
2023-02-15T16:46:42.936Z,4.75
2023-02-15T16:49:17.442Z,6.32
2023-02-15T16:51:48.181Z,5.53
2023-02-15T16:54:20.404Z,6.52
2023-02-15T16:56:47.718Z,6.67
2023-02-15T16:59:29.533Z,6.74
2023-02-15T17:01:56.484Z,6.73
2023-02-15T17:04:29.261Z,6.75
2023-02-15T17:07:01.816Z,6.74
2023-02-15T17:09:28.338Z,6.72
2023-02-15T17:11:54.991Z,6.70
2023-02-15T17:14:28.432Z,6.71
2023-02-15T17:17:00.298Z,6.68
2023-02-15T17:19:29.887Z,6.11
2023-02-15T17:21:59.229Z,6.57
2023-02-15T17:24:35.663Z,6.62
2023-02-15T17:27:05.424Z,6.64
2023-02-15T17:29:35.496Z,6.67
2023-02-15T17:32:03.073Z,6.67
2023-02-15T17:35:01.006Z,6.72
2023-02-15T17:37:30.489Z,6.42
2023-02-15T17:39:58.270Z,6.58
2023-02-15T17:42:25.014Z,6.57
2023-02-15T17:44:53.030Z,6.59
2023-02-15T17:47:23.088Z,6.61
2023-02-15T17:49:52.643Z,6.62
2023-02-15T17:52:19.386Z,6.59
2023-02-15T17:55:04.425Z,6.57
2023-02-15T17:57:31.295Z,6.56
2023-02-15T18:00:17.858Z,6.57
2023-02-15T18:03:03.250Z,6.57
2023-02-15T18:05:48.543Z,6.55
2023-02-15T18:08:35.286Z,6.52
2023-02-15T18:11:21.261Z,6.55
2023-02-15T18:13:47.829Z,6.50
2023-02-15T18:16:19.589Z,6.51
2023-02-15T18:18:46.445Z,6.53
2023-02-15T18:21:13.252Z,6.50
2023-02-15T18:23:40.110Z,6.48
2023-02-15T18:26:07.475Z,6.53
2023-02-15T18:28:34.078Z,6.46
2023-02-15T18:31:01.175Z,6.44
2023-02-15T18:33:35.020Z,6.46
2023-02-15T18:36:03.091Z,6.44
2023-02-15T18:38:30.876Z,6.20
2023-02-15T18:40:57.773Z,6.48
2023-02-15T18:43:24.423Z,6.46
2023-02-15T18:45:51.078Z,6.41
2023-02-15T18:48:17.850Z,6.38
2023-02-15T18:50:45.868Z,6.36
2023-02-15T18:53:18.593Z,6.40
2023-02-15T18:55:45.408Z,6.36
2023-02-15T18:58:20.126Z,6.46
2023-02-15T19:00:48.300Z,6.49
2023-02-15T19:03:16.042Z,3.40
2023-02-15T19:05:45.987Z,5.60
2023-02-15T19:08:18.881Z,6.14
2023-02-15T19:10:46.685Z,6.22
2023-02-15T19:13:14.031Z,6.23
2023-02-15T19:15:41.221Z,6.22
2023-02-15T19:18:07.982Z,6.20
2023-02-15T19:20:38.750Z,6.19
2023-02-15T19:23:14.632Z,6.17
2023-02-15T19:25:41.597Z,6.23
2023-02-15T19:28:15.956Z,6.26
2023-02-15T19:30:42.669Z,6.26
2023-02-15T19:33:16.868Z,3.07
2023-02-15T19:35:45.673Z,4.94
2023-02-15T19:38:17.747Z,5.69
2023-02-15T19:40:45.152Z,5.99
2023-02-15T19:43:16.482Z,6.04
2023-02-15T19:45:43.158Z,6.06
2023-02-15T19:48:12.132Z,6.04
2023-02-15T19:50:38.734Z,6.06
2023-02-15T19:53:05.455Z,6.10
2023-02-15T19:55:35.002Z,6.13
2023-02-15T19:58:02.294Z,6.04
2023-02-15T20:00:30.828Z,6.03
2023-02-15T20:02:59.188Z,5.99
2023-02-15T20:05:26.840Z,5.96
2023-02-15T20:07:54.036Z,6.04
2023-02-15T20:10:22.822Z,5.97
2023-02-15T20:12:50.796Z,6.00
2023-02-15T20:15:20.830Z,5.97
2023-02-15T20:17:47.646Z,5.91
2023-02-15T20:20:14.899Z,5.91
2023-02-15T20:22:42.691Z,5.58
2023-02-15T20:25:17.391Z,5.87
2023-02-15T20:27:44.006Z,5.85
2023-02-15T20:30:20.343Z,5.76
2023-02-15T20:32:47.357Z,5.81
2023-02-15T20:35:17.265Z,5.81
2023-02-15T20:37:44.395Z,4.76
2023-02-15T20:40:16.699Z,4.27
2023-02-15T20:42:43.494Z,3.04
2023-02-15T20:45:20.740Z,5.27
2023-02-15T20:47:50.327Z,5.59
2023-02-15T20:50:18.051Z,5.66
2023-02-15T20:52:45.373Z,5.67
2023-02-15T20:55:17.687Z,5.68
2023-02-15T20:57:45.015Z,3.42
2023-02-15T21:00:18.836Z,4.75
2023-02-15T21:02:47.777Z,1.17
2023-02-15T21:05:16.539Z,1.38
2023-02-15T21:07:44.128Z,3.63
2023-02-15T21:10:14.885Z,5.01
2023-02-15T21:12:43.323Z,5.30
2023-02-15T21:15:29.594Z,5.37
2023-02-15T21:17:59.214Z,5.40
2023-02-15T21:20:26.966Z,5.39
2023-02-15T21:22:54.280Z,2.97
2023-02-15T21:25:26.970Z,5.01
2023-02-15T21:27:54.343Z,5.30
2023-02-15T21:30:23.462Z,4.40
2023-02-15T21:32:50.540Z,4.76
2023-02-15T21:35:20.175Z,5.21
2023-02-15T21:37:49.234Z,5.29
2023-02-15T21:40:18.791Z,5.34
2023-02-15T21:43:04.248Z,5.31
2023-02-15T21:45:49.669Z,5.27
2023-02-15T21:48:16.399Z,5.35
2023-02-15T21:51:03.315Z,5.32
2023-02-15T21:53:32.671Z,2.62
2023-02-15T21:56:00.907Z,4.56
2023-02-15T21:58:29.327Z,5.09
2023-02-15T22:00:57.622Z,5.16
2023-02-15T22:03:26.911Z,5.25
2023-02-15T22:05:54.888Z,5.24
2023-02-15T22:08:21.597Z,2.19
2023-02-15T22:10:48.682Z,0.97
2023-02-15T22:13:17.142Z,1.45
2023-02-15T22:15:47.151Z,4.50
2023-02-15T22:18:23.312Z,4.90
2023-02-15T22:20:49.969Z,4.98
2023-02-15T22:23:18.009Z,3.19
2023-02-15T22:25:49.979Z,0.41
2023-02-15T22:28:16.802Z,1.46
2023-02-15T22:30:45.516Z,3.98
2023-02-15T22:33:26.713Z,4.69
2023-02-15T22:35:53.267Z,4.82
2023-02-15T22:38:21.526Z,4.88
2023-02-15T22:40:50.161Z,4.89
2023-02-15T22:43:26.611Z,4.55
2023-02-15T22:45:57.628Z,3.68
2023-02-15T22:48:24.163Z,4.63
2023-02-15T22:50:50.711Z,4.81
2023-02-15T22:53:17.251Z,4.85
2023-02-15T22:55:46.449Z,4.85
2023-02-15T22:58:17.893Z,4.84
2023-02-15T23:00:45.007Z,4.82
2023-02-15T23:03:17.098Z,4.83
2023-02-15T23:05:44.506Z,4.90
2023-02-15T23:08:11.407Z,4.89
2023-02-15T23:10:39.574Z,4.85
2023-02-15T23:13:24.943Z,4.82
2023-02-15T23:15:55.537Z,4.88
2023-02-15T23:18:26.299Z,4.82
2023-02-15T23:20:55.027Z,4.07
2023-02-15T23:23:29.562Z,3.80
2023-02-15T23:25:56.639Z,4.54
2023-02-15T23:28:29.869Z,2.11
2023-02-15T23:30:57.953Z,4.29
2023-02-15T23:33:28.218Z,4.55
2023-02-15T23:35:54.800Z,3.35
2023-02-15T23:38:24.065Z,4.46
2023-02-15T23:41:12.929Z,4.57
2023-02-15T23:43:43.676Z,4.68
2023-02-15T23:46:21.660Z,4.61
2023-02-15T23:48:48.176Z,4.60
2023-02-15T23:51:14.742Z,4.62
2023-02-15T23:53:41.265Z,3.56
2023-02-15T23:56:11.938Z,2.93
2023-02-15T23:58:42.502Z,4.07
